createdAt,value
2018-05-18T00:01:59.769Z,13.93
2018-05-18T00:04:30.760Z,13.91
2018-05-18T00:07:01.988Z,13.90
2018-05-18T00:09:32.963Z,13.89
2018-05-18T00:12:03.966Z,13.86
2018-05-18T00:14:34.959Z,13.85
2018-05-18T00:17:06.015Z,13.83
2018-05-18T00:19:36.950Z,13.83
2018-05-18T00:22:07.975Z,13.81
2018-05-18T00:24:41.440Z,13.77
2018-05-18T00:27:12.483Z,13.75
2018-05-18T00:29:43.455Z,13.75
2018-05-18T00:32:14.511Z,13.75
2018-05-18T00:34:45.525Z,13.78
2018-05-18T00:37:16.483Z,13.80
2018-05-18T00:39:47.502Z,13.81
2018-05-18T00:42:18.471Z,13.82
2018-05-18T00:44:49.571Z,13.84
2018-05-18T00:47:20.512Z,13.87
2018-05-18T00:49:51.523Z,13.92
2018-05-18T00:52:22.508Z,13.95
2018-05-18T00:54:53.553Z,13.96
2018-05-18T00:57:24.568Z,13.95
2018-05-18T00:59:55.585Z,13.93
2018-05-18T01:02:26.571Z,13.89
2018-05-18T01:04:57.594Z,13.85
2018-05-18T01:07:28.592Z,13.80
2018-05-18T01:09:59.616Z,13.76
2018-05-18T01:12:30.652Z,13.70
2018-05-18T01:15:01.636Z,13.66
2018-05-18T01:17:32.605Z,13.62
2018-05-18T01:20:03.586Z,13.60
2018-05-18T01:22:34.576Z,13.58
2018-05-18T01:25:05.605Z,13.54
2018-05-18T01:27:36.604Z,13.50
2018-05-18T01:30:07.656Z,13.46
2018-05-18T01:32:38.632Z,13.39
2018-05-18T01:35:09.630Z,13.35
2018-05-18T01:37:40.644Z,13.33
2018-05-18T01:40:11.679Z,13.32
2018-05-18T01:42:42.719Z,13.32
2018-05-18T01:45:13.712Z,13.31
2018-05-18T01:47:44.695Z,13.29
2018-05-18T01:50:15.747Z,13.29
2018-05-18T01:52:46.718Z,13.29
2018-05-18T01:55:17.764Z,13.28
2018-05-18T01:57:48.714Z,13.27
2018-05-18T02:00:19.761Z,13.25
2018-05-18T02:02:50.791Z,13.22
2018-05-18T02:05:21.848Z,13.20
2018-05-18T02:07:52.854Z,13.19
2018-05-18T02:10:23.875Z,13.18
2018-05-18T02:12:54.826Z,13.11
2018-05-18T02:15:25.817Z,13.09
2018-05-18T02:17:56.847Z,13.06
2018-05-18T02:20:27.889Z,13.05
2018-05-18T02:22:58.886Z,13.05
2018-05-18T02:25:29.847Z,13.06
2018-05-18T02:28:00.844Z,13.06
2018-05-18T02:30:31.780Z,13.03
2018-05-18T02:33:02.794Z,13.03
2018-05-18T02:35:40.905Z,13.01
2018-05-18T02:38:11.960Z,12.94
2018-05-18T02:40:42.986Z,12.94
2018-05-18T02:43:14.008Z,12.93
2018-05-18T02:45:45.029Z,12.92
2018-05-18T02:48:16.048Z,12.92
2018-05-18T02:50:47.044Z,12.87
2018-05-18T02:53:18.022Z,12.83
2018-05-18T02:55:48.972Z,12.78
2018-05-18T02:58:19.974Z,12.74
2018-05-18T03:00:50.987Z,12.71
2018-05-18T03:03:22.014Z,12.70
2018-05-18T03:05:53.033Z,12.71
2018-05-18T03:08:24.124Z,12.72
2018-05-18T03:10:55.099Z,12.71
2018-05-18T03:13:26.091Z,12.72
2018-05-18T03:15:57.098Z,12.71
2018-05-18T03:18:28.121Z,12.68
2018-05-18T03:20:59.122Z,12.65
2018-05-18T03:23:30.108Z,12.67
2018-05-18T03:26:01.150Z,12.69
2018-05-18T03:28:32.128Z,12.71
2018-05-18T03:31:03.125Z,12.72
2018-05-18T03:33:34.114Z,12.72
2018-05-18T03:36:05.091Z,12.72
2018-05-18T03:38:36.118Z,12.72
2018-05-18T03:41:07.150Z,12.73
2018-05-18T03:43:38.173Z,12.73
2018-05-18T03:46:09.133Z,12.75
2018-05-18T03:48:40.100Z,12.79
2018-05-18T03:51:11.198Z,12.83
2018-05-18T03:53:42.165Z,12.89
2018-05-18T03:56:13.365Z,12.94
2018-05-18T03:58:44.372Z,13.01
2018-05-18T04:01:27.609Z,13.10
2018-05-18T04:04:10.878Z,13.17
2018-05-18T04:06:53.998Z,13.25
2018-05-18T04:09:25.014Z,13.34
2018-05-18T04:11:56.064Z,13.54
2018-05-18T04:14:27.120Z,13.74
2018-05-18T04:16:58.114Z,13.93
2018-05-18T04:19:29.107Z,14.07
2018-05-18T04:22:00.120Z,14.22
2018-05-18T04:24:31.140Z,14.34
2018-05-18T04:27:02.122Z,14.44
2018-05-18T04:29:33.083Z,14.51
2018-05-18T04:32:04.098Z,14.61
2018-05-18T04:34:35.052Z,14.63
2018-05-18T04:37:06.078Z,14.66
2018-05-18T04:39:37.063Z,14.83
2018-05-18T04:42:08.084Z,15.00
2018-05-18T04:44:39.161Z,15.11
2018-05-18T04:47:10.145Z,15.16
2018-05-18T04:49:41.091Z,15.28
2018-05-18T04:52:12.110Z,15.28
2018-05-18T04:54:43.067Z,15.41
2018-05-18T04:57:14.104Z,15.63
2018-05-18T04:59:45.071Z,15.88
2018-05-18T05:02:16.058Z,16.05
2018-05-18T05:04:47.055Z,16.32
2018-05-18T05:07:18.082Z,16.62
2018-05-18T05:09:49.028Z,16.81
2018-05-18T05:12:20.072Z,17.08
2018-05-18T05:14:51.068Z,17.42
2018-05-18T05:17:22.047Z,17.61
2018-05-18T05:19:53.023Z,17.78
2018-05-18T05:22:24.052Z,17.93
2018-05-18T05:24:55.083Z,18.20
2018-05-18T05:27:26.070Z,18.36
2018-05-18T05:29:57.037Z,18.48
2018-05-18T05:32:28.038Z,18.48
2018-05-18T05:34:59.011Z,18.62
2018-05-18T05:37:30.050Z,18.76
2018-05-18T05:40:01.076Z,18.92
2018-05-18T05:42:32.062Z,19.08
2018-05-18T05:45:03.104Z,19.16
2018-05-18T05:47:34.069Z,19.33
2018-05-18T05:50:05.105Z,19.76
2018-05-18T05:52:36.106Z,20.28
2018-05-18T05:55:07.084Z,20.84
2018-05-18T05:57:38.072Z,21.33
2018-05-18T06:00:09.131Z,24.61
2018-05-18T06:02:40.144Z,25.69
2018-05-18T06:05:11.130Z,25.15
2018-05-18T06:07:42.128Z,25.48
2018-05-18T06:10:13.074Z,26.34
2018-05-18T06:12:44.115Z,27.57
2018-05-18T06:15:15.072Z,31.56
2018-05-18T06:17:46.044Z,34.69
2018-05-18T06:20:17.087Z,36.25
2018-05-18T06:22:48.060Z,37.95
2018-05-18T06:25:19.073Z,39.55
2018-05-18T06:27:50.036Z,40.83
2018-05-18T06:30:28.110Z,41.75
2018-05-18T06:32:59.080Z,42.47
2018-05-18T06:35:30.129Z,43.75
2018-05-18T06:38:01.147Z,44.47
2018-05-18T06:40:32.187Z,44.51
2018-05-18T06:43:03.171Z,45.24
2018-05-18T06:45:34.186Z,46.10
2018-05-18T06:48:05.156Z,46.68
2018-05-18T06:50:36.210Z,47.32
2018-05-18T06:53:07.199Z,47.27
2018-05-18T06:55:38.211Z,47.40
2018-05-18T06:58:09.233Z,47.11
2018-05-18T07:00:40.280Z,47.15
2018-05-18T07:03:11.280Z,47.11
2018-05-18T07:05:42.308Z,47.13
2018-05-18T07:08:13.288Z,48.27
2018-05-18T07:10:44.316Z,47.99
2018-05-18T07:13:15.248Z,48.22
2018-05-18T07:15:46.248Z,48.66
2018-05-18T07:18:17.231Z,49.09
2018-05-18T07:20:48.247Z,49.91
2018-05-18T07:23:19.262Z,50.62
2018-05-18T07:25:50.286Z,50.24
2018-05-18T07:28:21.335Z,49.86
2018-05-18T07:30:52.400Z,50.92
2018-05-18T07:33:23.485Z,52.01
2018-05-18T07:35:54.485Z,52.55
2018-05-18T07:38:25.459Z,52.82
2018-05-18T07:40:56.560Z,53.43
2018-05-18T07:43:27.574Z,54.13
2018-05-18T07:45:58.555Z,54.57
2018-05-18T07:48:29.636Z,54.86
2018-05-18T07:51:00.588Z,55.14
2018-05-18T07:53:31.701Z,55.23
2018-05-18T07:56:02.663Z,55.57
2018-05-18T07:58:33.686Z,55.33
2018-05-18T08:01:04.681Z,55.32
2018-05-18T08:03:35.700Z,55.68
2018-05-18T08:06:06.695Z,56.46
2018-05-18T08:08:37.737Z,56.80
2018-05-18T08:11:08.770Z,56.31
2018-05-18T08:13:39.813Z,56.98
2018-05-18T08:16:10.836Z,57.42
2018-05-18T08:18:41.876Z,56.77
2018-05-18T08:21:12.912Z,56.82
2018-05-18T08:23:43.906Z,56.40
2018-05-18T08:26:15.019Z,54.68
2018-05-18T08:28:58.374Z,53.25
2018-05-18T08:31:29.379Z,53.84
2018-05-18T08:34:00.456Z,53.56
2018-05-18T08:36:31.444Z,53.91
2018-05-18T08:39:02.555Z,54.95
2018-05-18T08:41:33.574Z,54.60
2018-05-18T08:44:04.762Z,51.35
2018-05-18T08:46:35.785Z,52.56
2018-05-18T08:49:06.804Z,52.75
2018-05-18T08:51:37.842Z,52.57
2018-05-18T08:54:08.991Z,51.57
2018-05-18T08:56:40.014Z,49.50
2018-05-18T08:59:11.042Z,46.50
2018-05-18T09:01:42.182Z,48.21
2018-05-18T09:04:13.178Z,49.97
2018-05-18T09:06:44.284Z,51.33
2018-05-18T09:09:15.290Z,52.24
2018-05-18T09:11:46.262Z,50.52
2018-05-18T09:14:17.279Z,48.82
2018-05-18T09:16:48.330Z,47.38
2018-05-18T09:19:19.330Z,47.01
2018-05-18T09:21:50.331Z,45.32
2018-05-18T09:24:21.387Z,43.97
2018-05-18T09:26:52.439Z,47.38
2018-05-18T09:29:23.509Z,50.59
2018-05-18T09:31:54.485Z,53.18
2018-05-18T09:34:25.477Z,55.36
2018-05-18T09:36:56.464Z,57.02
2018-05-18T09:39:27.519Z,56.32
2018-05-18T09:41:58.529Z,51.81
2018-05-18T09:44:29.557Z,46.36
2018-05-18T09:47:00.539Z,42.61
2018-05-18T09:49:31.561Z,39.89
2018-05-18T09:52:02.581Z,37.81
2018-05-18T09:54:33.817Z,36.02
2018-05-18T09:57:04.861Z,38.07
2018-05-18T09:59:35.850Z,41.47
2018-05-18T10:02:06.868Z,43.14
2018-05-18T10:04:37.898Z,42.96
2018-05-18T10:07:08.936Z,42.15
2018-05-18T10:09:39.921Z,40.53
2018-05-18T10:12:10.953Z,38.65
2018-05-18T10:14:41.992Z,37.56
2018-05-18T10:17:12.947Z,37.95
2018-05-18T10:19:43.974Z,41.06
2018-05-18T10:22:15.002Z,43.89
2018-05-18T10:24:46.016Z,45.86
2018-05-18T10:27:17.024Z,45.48
2018-05-18T10:29:48.050Z,46.77
2018-05-18T10:32:19.151Z,47.93
2018-05-18T10:34:50.172Z,47.26
2018-05-18T10:37:21.220Z,44.58
2018-05-18T10:39:52.229Z,42.19
2018-05-18T10:42:23.261Z,40.30
2018-05-18T10:44:54.244Z,41.32
2018-05-18T10:47:25.272Z,42.40
2018-05-18T10:49:56.297Z,43.52
2018-05-18T10:52:27.298Z,44.17
2018-05-18T10:54:58.320Z,43.58
2018-05-18T10:57:29.358Z,41.04
2018-05-18T11:00:00.390Z,38.97
2018-05-18T11:02:31.455Z,37.57
2018-05-18T11:05:02.470Z,36.44
2018-05-18T11:07:33.488Z,35.66
2018-05-18T11:10:04.471Z,34.80
2018-05-18T11:12:35.490Z,34.06
2018-05-18T11:15:06.463Z,33.39
2018-05-18T11:17:37.438Z,32.97
2018-05-18T11:20:08.490Z,32.65
2018-05-18T11:22:39.402Z,32.45
2018-05-18T11:25:10.373Z,32.09
2018-05-18T11:27:41.388Z,31.57
2018-05-18T11:30:12.397Z,31.60
2018-05-18T11:32:43.451Z,31.88
2018-05-18T11:35:14.392Z,32.05
2018-05-18T11:37:45.403Z,31.38
2018-05-18T11:40:16.401Z,30.87
2018-05-18T11:42:47.517Z,30.59
2018-05-18T11:45:18.544Z,30.61
2018-05-18T11:47:49.614Z,30.41
2018-05-18T11:50:20.638Z,30.03
2018-05-18T11:52:51.673Z,30.23
2018-05-18T11:55:22.688Z,30.31
2018-05-18T11:57:53.680Z,30.33
2018-05-18T12:00:24.712Z,30.64
2018-05-18T12:02:55.739Z,30.90
2018-05-18T12:05:26.731Z,30.80
2018-05-18T12:07:57.746Z,30.81
2018-05-18T12:10:28.758Z,30.39
2018-05-18T12:13:06.679Z,30.31
2018-05-18T12:15:37.742Z,30.77
2018-05-18T12:18:08.740Z,30.53
2018-05-18T12:20:39.756Z,29.95
2018-05-18T12:23:10.749Z,29.65
2018-05-18T12:25:41.741Z,29.44
2018-05-18T12:28:12.716Z,30.02
2018-05-18T12:30:43.748Z,30.55
2018-05-18T12:33:14.789Z,30.77
2018-05-18T12:35:45.801Z,30.89
2018-05-18T12:38:16.942Z,31.14
2018-05-18T12:40:47.821Z,30.76
2018-05-18T12:43:18.830Z,30.66
2018-05-18T12:45:49.867Z,30.98
2018-05-18T12:48:20.863Z,30.64
2018-05-18T12:50:51.848Z,30.52
2018-05-18T12:53:22.882Z,30.51
2018-05-18T12:55:53.864Z,30.06
2018-05-18T12:58:24.921Z,29.94
2018-05-18T13:00:55.910Z,30.07
2018-05-18T13:03:26.948Z,30.03
2018-05-18T13:05:57.985Z,29.91
2018-05-18T13:08:29.041Z,29.75
2018-05-18T13:11:00.064Z,29.82
2018-05-18T13:13:31.030Z,30.03
2018-05-18T13:16:02.139Z,30.01
2018-05-18T13:18:33.140Z,30.26
2018-05-18T13:21:04.168Z,30.40
2018-05-18T13:23:35.218Z,30.58
2018-05-18T13:26:06.195Z,30.44
2018-05-18T13:28:37.240Z,30.45
2018-05-18T13:31:08.267Z,30.70
2018-05-18T13:33:39.254Z,30.67
2018-05-18T13:36:10.248Z,30.85
2018-05-18T13:38:41.296Z,30.90
2018-05-18T13:41:12.296Z,30.90
2018-05-18T13:43:43.373Z,30.72
2018-05-18T13:46:14.384Z,30.40
2018-05-18T13:48:45.352Z,30.48
2018-05-18T13:51:16.354Z,30.63
2018-05-18T13:53:47.381Z,30.96
2018-05-18T13:56:18.403Z,30.86
2018-05-18T13:58:49.421Z,30.76
2018-05-18T14:01:20.468Z,31.10
2018-05-18T14:03:51.442Z,31.19
2018-05-18T14:06:22.489Z,31.34
2018-05-18T14:08:53.500Z,31.24
2018-05-18T14:11:24.493Z,31.18
2018-05-18T14:13:55.536Z,31.45
2018-05-18T14:16:26.537Z,31.19
2018-05-18T14:18:57.784Z,30.24
2018-05-18T14:21:28.782Z,29.87
2018-05-18T14:23:59.819Z,29.99
2018-05-18T14:26:30.952Z,29.34
2018-05-18T14:29:01.857Z,28.64
2018-05-18T14:31:32.903Z,28.23
2018-05-18T14:34:04.004Z,27.86
2018-05-18T14:36:35.012Z,28.19
2018-05-18T14:39:06.025Z,29.10
2018-05-18T14:41:37.054Z,29.95
2018-05-18T14:44:08.120Z,30.65
2018-05-18T14:46:39.142Z,30.69
2018-05-18T14:49:10.144Z,31.07
2018-05-18T14:51:41.168Z,31.15
2018-05-18T14:54:12.185Z,30.58
2018-05-18T14:56:43.241Z,30.26
2018-05-18T14:59:14.248Z,30.15
2018-05-18T15:01:45.255Z,29.90
2018-05-18T15:04:16.277Z,29.64
2018-05-18T15:06:47.272Z,29.58
2018-05-18T15:09:18.258Z,29.31
2018-05-18T15:11:56.328Z,28.91
2018-05-18T15:14:27.344Z,28.46
2018-05-18T15:16:58.358Z,28.16
2018-05-18T15:19:29.386Z,27.95
2018-05-18T15:22:00.345Z,27.94
2018-05-18T15:24:31.344Z,28.07
2018-05-18T15:27:02.386Z,27.76
2018-05-18T15:29:33.428Z,27.50
2018-05-18T15:32:04.510Z,27.31
2018-05-18T15:34:35.550Z,27.05
2018-05-18T15:37:06.558Z,26.70
2018-05-18T15:39:37.587Z,26.43
2018-05-18T15:42:08.595Z,26.26
2018-05-18T15:44:39.659Z,26.18
2018-05-18T15:47:10.659Z,26.25
2018-05-18T15:49:41.689Z,26.59
2018-05-18T15:52:12.771Z,26.94
2018-05-18T15:54:43.741Z,26.88
2018-05-18T15:57:14.794Z,26.57
2018-05-18T15:59:45.851Z,26.25
2018-05-18T16:02:16.842Z,26.24
2018-05-18T16:04:47.842Z,26.27
2018-05-18T16:07:18.920Z,25.95
2018-05-18T16:09:49.920Z,25.62
2018-05-18T16:12:20.936Z,25.58
2018-05-18T16:14:52.072Z,25.79
2018-05-18T16:17:23.108Z,26.04
2018-05-18T16:19:54.089Z,26.09
2018-05-18T16:22:25.124Z,26.08
2018-05-18T16:24:56.095Z,26.09
2018-05-18T16:27:27.129Z,26.10
2018-05-18T16:29:58.176Z,26.04
2018-05-18T16:32:29.215Z,25.98
2018-05-18T16:35:00.222Z,25.92
2018-05-18T16:37:31.268Z,25.95
2018-05-18T16:40:02.338Z,25.95
2018-05-18T16:42:33.359Z,25.73
2018-05-18T16:45:04.393Z,25.62
2018-05-18T16:47:35.416Z,25.52
2018-05-18T16:52:42.149Z,25.36
2018-05-18T16:55:13.130Z,25.37
2018-05-18T16:57:44.251Z,25.25
2018-05-18T17:00:15.233Z,25.14
2018-05-18T17:02:46.296Z,24.97
2018-05-18T17:05:17.358Z,24.83
2018-05-18T17:07:48.389Z,24.78
2018-05-18T17:10:19.416Z,24.71
2018-05-18T17:12:50.433Z,24.60
2018-05-18T17:15:21.422Z,24.56
2018-05-18T17:17:52.456Z,24.49
2018-05-18T17:20:23.438Z,24.41
2018-05-18T17:22:54.471Z,24.25
2018-05-18T17:25:25.511Z,24.15
2018-05-18T17:27:56.539Z,24.04
2018-05-18T17:30:28.232Z,23.95
2018-05-18T17:32:59.239Z,23.87
2018-05-18T17:35:30.229Z,23.85
2018-05-18T17:38:01.202Z,23.75
2018-05-18T17:40:32.267Z,23.62
2018-05-18T17:43:03.290Z,23.49
2018-05-18T17:45:42.008Z,23.32
2018-05-18T17:48:13.205Z,23.21
2018-05-18T17:50:44.375Z,23.14
2018-05-18T17:53:15.530Z,23.03
2018-05-18T17:55:46.703Z,22.89
2018-05-18T17:58:17.914Z,22.76
2018-05-18T18:00:49.072Z,22.64
2018-05-18T18:03:20.346Z,22.56
2018-05-18T18:05:51.407Z,22.47
2018-05-18T18:08:22.789Z,22.37
2018-05-18T18:10:54.004Z,22.33
2018-05-18T18:13:25.153Z,22.25
2018-05-18T18:15:56.290Z,22.19
2018-05-18T18:18:27.428Z,22.14
2018-05-18T18:20:58.550Z,22.07
2018-05-18T18:23:30.629Z,22.00
2018-05-18T18:26:01.643Z,21.95
2018-05-18T18:28:32.799Z,21.87
2018-05-18T18:31:03.768Z,21.78
2018-05-18T18:33:34.814Z,21.66
2018-05-18T18:36:05.852Z,21.58
2018-05-18T18:38:36.910Z,21.44
2018-05-18T18:41:07.920Z,21.31
2018-05-18T18:43:38.919Z,21.18
2018-05-18T18:46:09.945Z,21.05
2018-05-18T18:48:40.923Z,20.93
2018-05-18T18:51:11.942Z,20.82
2018-05-18T18:53:42.989Z,20.67
2018-05-18T18:56:14.053Z,20.55
2018-05-18T18:58:45.080Z,20.44
2018-05-18T19:01:16.034Z,20.34
2018-05-18T19:03:47.035Z,20.25
2018-05-18T19:06:18.118Z,20.17
2018-05-18T19:08:49.082Z,20.09
2018-05-18T19:11:20.117Z,20.00
2018-05-18T19:13:51.095Z,19.92
2018-05-18T19:16:22.130Z,19.83
2018-05-18T19:18:53.154Z,19.76
2018-05-18T19:21:24.178Z,19.71
2018-05-18T19:23:55.159Z,19.67
2018-05-18T19:26:26.162Z,19.68
2018-05-18T19:28:57.186Z,19.55
2018-05-18T19:31:28.217Z,19.48
2018-05-18T19:33:59.212Z,19.43
2018-05-18T19:36:30.301Z,19.36
2018-05-18T19:39:01.293Z,19.30
2018-05-18T19:41:32.328Z,19.25
2018-05-18T19:44:03.377Z,19.21
2018-05-18T19:46:34.364Z,19.14
2018-05-18T19:49:05.403Z,19.06
2018-05-18T19:51:36.430Z,19.03
2018-05-18T19:54:07.505Z,18.98
2018-05-18T19:56:38.512Z,18.93
2018-05-18T19:59:09.575Z,18.87
2018-05-18T20:01:40.566Z,18.83
2018-05-18T20:04:11.881Z,18.78
2018-05-18T20:06:42.917Z,18.71
2018-05-18T20:09:13.886Z,18.66
2018-05-18T20:11:44.901Z,18.62
2018-05-18T20:14:16.065Z,18.55
2018-05-18T20:16:47.089Z,18.49
2018-05-18T20:19:18.063Z,18.44
2018-05-18T20:21:49.048Z,18.38
2018-05-18T20:24:20.064Z,18.30
2018-05-18T20:26:51.069Z,18.27
2018-05-18T20:29:22.104Z,18.23
2018-05-18T20:31:53.131Z,18.18
2018-05-18T20:34:24.123Z,18.12
2018-05-18T20:36:55.197Z,18.07
2018-05-18T20:39:26.149Z,18.00
2018-05-18T20:41:57.138Z,17.95
2018-05-18T20:44:28.163Z,17.88
2018-05-18T20:46:59.186Z,17.80
2018-05-18T20:49:30.155Z,17.76
2018-05-18T20:52:01.183Z,17.70
2018-05-18T20:54:32.201Z,17.66
2018-05-18T20:57:03.232Z,17.60
2018-05-18T20:59:34.230Z,17.50
2018-05-18T21:02:05.252Z,17.40
2018-05-18T21:04:36.280Z,17.36
2018-05-18T21:07:07.293Z,17.30
2018-05-18T21:09:38.303Z,17.24
2018-05-18T21:12:09.364Z,17.19
2018-05-18T21:14:40.428Z,17.16
2018-05-18T21:17:11.552Z,17.13
2018-05-18T21:19:42.543Z,17.07
2018-05-18T21:22:13.578Z,17.03
2018-05-18T21:24:44.574Z,16.98
2018-05-18T21:27:15.612Z,16.93
2018-05-18T21:29:46.726Z,16.89
2018-05-18T21:32:17.760Z,16.84
2018-05-18T21:34:48.732Z,16.81
2018-05-18T21:37:19.739Z,16.78
2018-05-18T21:39:50.747Z,16.73
2018-05-18T21:42:21.774Z,16.69
2018-05-18T21:44:52.759Z,16.66
2018-05-18T21:47:23.732Z,16.62
2018-05-18T21:49:54.775Z,16.59
2018-05-18T21:52:25.740Z,16.57
2018-05-18T21:54:56.813Z,16.53
2018-05-18T21:57:27.789Z,16.48
2018-05-18T21:59:58.870Z,16.45
2018-05-18T22:02:29.812Z,16.42
2018-05-18T22:05:00.811Z,16.38
2018-05-18T22:07:31.776Z,16.34
2018-05-18T22:10:02.851Z,16.30
2018-05-18T22:12:33.847Z,16.28
2018-05-18T22:15:04.940Z,16.19
2018-05-18T22:17:35.915Z,16.18
2018-05-18T22:20:06.936Z,16.16
2018-05-18T22:22:37.944Z,16.13
2018-05-18T22:25:15.866Z,16.12
2018-05-18T22:27:46.869Z,16.04
2018-05-18T22:30:17.891Z,16.04
2018-05-18T22:32:48.902Z,16.03
2018-05-18T22:35:19.890Z,16.01
2018-05-18T22:37:50.920Z,15.98
2018-05-18T22:40:21.950Z,15.95
2018-05-18T22:42:52.973Z,15.90
2018-05-18T22:45:24.027Z,15.87
2018-05-18T22:47:55.020Z,15.84
2018-05-18T22:50:26.055Z,15.82
2018-05-18T22:52:57.088Z,15.80
2018-05-18T22:55:28.180Z,15.70
2018-05-18T22:57:59.187Z,15.71
2018-05-18T23:00:30.220Z,15.69
2018-05-18T23:03:01.254Z,15.66
2018-05-18T23:05:32.248Z,15.63
2018-05-18T23:08:03.279Z,15.62
2018-05-18T23:10:34.308Z,15.57
2018-05-18T23:13:05.328Z,15.57
2018-05-18T23:15:36.369Z,15.53
2018-05-18T23:18:07.396Z,15.55
2018-05-18T23:20:38.414Z,15.52
2018-05-18T23:23:09.457Z,15.51
2018-05-18T23:25:40.489Z,15.51
2018-05-18T23:28:11.493Z,15.51
2018-05-18T23:30:42.554Z,15.49
2018-05-18T23:33:13.552Z,15.48
2018-05-18T23:35:44.555Z,15.43
2018-05-18T23:38:15.577Z,15.40
2018-05-18T23:40:46.618Z,15.37
2018-05-18T23:43:17.610Z,15.33
2018-05-18T23:45:48.598Z,15.29
2018-05-18T23:48:19.592Z,15.27
2018-05-18T23:50:50.599Z,15.25
2018-05-18T23:53:21.629Z,15.21
2018-05-18T23:55:52.602Z,15.17
2018-05-18T23:58:23.597Z,15.17
